Angelica, Pennsylvania
Current Conditions -  °F | °C
As of 7:54 PM on Friday 28 Nov 2014 (Local Time) from KRDG Reporting Station
Clear Clear  
Wind Chill: -2°   Ceiling: Unl
Heat Index: -2°   Visibility: 10mi
Dew Point: -9°   Wind: 0mph
Humidity: 61%   Direction: NA
Pressure: 30.26"   Gusts: NA
Location:  40.2411°N, 75.9752°W
Report Text: KRDG 290054Z AUTO 00000KT 10SM CLR M02/M09 A3026 RMK AO2 SLP254 T10221089
Loading
Personal Weather Stations






























Interactive Weather Map New forecast layout! Learn more

10-Day Weather Forecast

Advertisements
Track Severe Weather on mobile